Time;durP1;ratioP1;P1;durP2;ratioP2;P2;SDS_P1;SDS_P2;PMS_P1;PMS_P2;Temp;Humidity;BMP_temperature;BMP_pressure;BME280_temperature;BME280_humidity;BME280_pressure;Samples;Min_cycle;Max_cycle;Signal;HPM_P1;HPM_P2
2023/06/01 00:00:28;;;;;;;8.02;4.57;;;;;;;14.67;65.92;102198.13;5029896;28;20116;-77
2023/06/01 00:02:53;;;;;;;8.88;5.03;;;;;;;14.61;66.08;102197.34;5029303;28;20036;-77
2023/06/01 00:05:18;;;;;;;7.75;4.85;;;;;;;14.56;66.34;102195.72;5030256;28;20060;-77
2023/06/01 00:07:43;;;;;;;9.13;4.90;;;;;;;14.53;66.28;102202.75;5028610;28;20048;-77
2023/06/01 00:10:09;;;;;;;8.50;4.88;;;;;;;14.50;66.65;102197.59;5030509;28;20052;-77
2023/06/01 00:12:34;;;;;;;9.23;5.05;;;;;;;14.47;66.59;102202.91;5029014;28;20390;-77
2023/06/01 00:15:00;;;;;;;9.18;5.43;;;;;;;14.42;66.87;102196.00;5030853;28;20067;-77
2023/06/01 00:17:25;;;;;;;8.93;5.03;;;;;;;14.38;66.70;102196.94;5030109;28;20388;-77
2023/06/01 00:19:52;;;;;;;8.95;5.25;;;;;;;14.34;66.74;102199.66;5029619;28;20354;-77
2023/06/01 00:22:18;;;;;;;9.30;5.53;;;;;;;14.31;66.72;102199.69;5028962;28;20033;-77
2023/06/01 00:24:43;;;;;;;8.60;4.88;;;;;;;14.27;66.66;102193.69;5029667;28;20018;-77
2023/06/01 00:27:09;;;;;;;11.88;4.82;;;;;;;14.23;66.80;102189.38;5026232;28;20072;-77
2023/06/01 00:29:34;;;;;;;9.27;5.22;;;;;;;14.20;66.87;102187.69;5029923;28;20151;-77
2023/06/01 00:31:59;;;;;;;7.63;5.03;;;;;;;14.14;66.94;102190.44;5028876;28;20033;-80
2023/06/01 00:34:24;;;;;;;9.25;5.60;;;;;;;14.10;66.77;102192.25;5046156;28;20037;-77
2023/06/01 00:36:50;;;;;;;8.00;5.28;;;;;;;14.04;67.09;102187.13;5028403;28;20064;-77
2023/06/01 00:39:15;;;;;;;8.77;5.30;;;;;;;13.99;67.42;102198.56;5029609;28;20137;-77
2023/06/01 00:41:41;;;;;;;8.73;5.18;;;;;;;13.93;67.83;102194.31;5029011;28;20029;-77
2023/06/01 00:44:06;;;;;;;8.77;5.65;;;;;;;13.90;67.79;102199.59;5027776;28;20030;-77
2023/06/01 00:46:31;;;;;;;10.70;5.22;;;;;;;13.85;67.47;102201.41;5027919;28;20029;-77
2023/06/01 00:48:58;;;;;;;10.07;5.65;;;;;;;13.77;67.89;102189.34;5029423;28;20111;-77
2023/06/01 00:51:24;;;;;;;8.88;5.47;;;;;;;13.72;67.94;102190.34;5025003;28;20042;-77
2023/06/01 00:53:50;;;;;;;9.82;5.50;;;;;;;13.66;67.91;102192.16;5027724;28;20060;-77
2023/06/01 00:56:17;;;;;;;9.77;6.15;;;;;;;13.58;68.19;102187.94;5029540;28;20033;-77
2023/06/01 00:58:43;;;;;;;8.48;5.80;;;;;;;13.53;68.41;102184.53;5029792;28;20041;-77
2023/06/01 01:01:18;;;;;;;8.55;5.40;;;;;;;13.48;68.09;102195.94;5027463;28;20066;-77
2023/06/01 01:03:49;;;;;;;8.43;5.05;;;;;;;13.41;67.68;102198.69;5027972;28;20503;-77
2023/06/01 01:06:25;;;;;;;9.70;5.07;;;;;;;13.35;67.73;102197.84;5027825;28;20025;-77
2023/06/01 01:09:08;;;;;;;8.60;5.07;;;;;;;13.30;66.93;102206.66;5027398;28;20033;-77
2023/06/01 01:11:37;;;;;;;7.82;4.85;;;;;;;13.22;67.81;102201.56;5028578;28;20044;-77
2023/06/01 01:14:14;;;;;;;8.32;5.18;;;;;;;13.15;67.58;102199.91;5026502;28;20056;-77
2023/06/01 01:17:04;;;;;;;8.55;4.40;;;;;;;13.11;67.81;102206.06;5029195;28;20036;-77
2023/06/01 01:20:05;;;;;;;8.85;5.00;;;;;;;13.07;67.26;102213.06;5030545;28;20028;-77
2023/06/01 01:23:05;;;;;;;8.90;5.03;;;;;;;13.03;66.62;102216.59;5029706;28;20460;-77
2023/06/01 01:26:18;;;;;;;6.65;4.45;;;;;;;13.00;65.98;102211.41;5028418;28;20048;-77
2023/06/01 01:28:49;;;;;;;8.05;4.57;;;;;;;12.93;68.24;102212.41;4950626;28;20027;-77
2023/06/01 01:31:22;;;;;;;8.80;4.90;;;;;;;12.88;68.67;102210.72;4950747;28;20534;-77
2023/06/01 01:33:51;;;;;;;9.55;4.80;;;;;;;12.86;68.74;102199.41;4998032;28;20402;-77
2023/06/01 01:36:16;;;;;;;9.20;4.70;;;;;;;12.86;68.98;102212.47;5027694;28;20038;-77
2023/06/01 01:38:42;;;;;;;10.13;5.30;;;;;;;12.80;69.06;102209.97;5027795;28;20425;-77
2023/06/01 01:41:07;;;;;;;7.05;4.78;;;;;;;12.77;68.40;102209.13;5028727;28;20443;-77
2023/06/01 01:43:33;;;;;;;9.27;4.95;;;;;;;12.71;69.12;102207.47;5027239;28;20029;-77
2023/06/01 01:46:27;;;;;;;8.32;5.13;;;;;;;12.67;67.94;102214.47;5028369;28;20426;-77
2023/06/01 01:49:18;;;;;;;8.18;4.85;;;;;;;12.60;68.25;102213.69;5028771;28;20029;-77
2023/06/01 01:52:13;;;;;;;11.48;6.05;;;;;;;12.56;67.89;102217.22;5028077;28;20017;-77
2023/06/01 01:54:42;;;;;;;9.15;5.53;;;;;;;12.49;69.43;102210.31;5013752;28;20053;-77
2023/06/01 01:57:08;;;;;;;9.82;5.63;;;;;;;12.42;69.90;102214.75;5030898;28;20341;-77
2023/06/01 01:59:35;;;;;;;10.75;5.38;;;;;;;12.39;70.03;102219.16;5033153;28;20025;-76
2023/06/01 02:02:02;;;;;;;12.35;5.35;;;;;;;12.36;69.99;102221.78;5023502;28;20076;-77
2023/06/01 02:04:28;;;;;;;7.95;5.35;;;;;;;12.33;69.89;102208.78;5027722;28;20408;-77
2023/06/01 02:06:53;;;;;;;11.68;5.90;;;;;;;12.27;70.43;102214.94;5030098;28;20030;-77
2023/06/01 02:09:18;;;;;;;9.88;6.20;;;;;;;12.21;70.03;102204.56;5028492;28;20104;-77
2023/06/01 02:11:44;;;;;;;9.10;6.03;;;;;;;12.16;70.51;102212.44;5030475;28;20392;-77
2023/06/01 02:14:09;;;;;;;9.27;5.95;;;;;;;12.15;70.28;102215.91;5027754;28;20480;-77
2023/06/01 02:16:35;;;;;;;11.10;6.70;;;;;;;12.10;70.63;102218.56;5029497;28;20492;-77
2023/06/01 02:19:02;;;;;;;11.82;7.00;;;;;;;12.08;70.67;102219.47;5030833;28;20021;-77
2023/06/01 02:21:27;;;;;;;11.10;6.82;;;;;;;12.05;71.16;102215.13;5031582;28;20460;-77
2023/06/01 02:23:53;;;;;;;11.50;7.15;;;;;;;12.05;71.39;102206.47;5031235;28;20057;-76
2023/06/01 02:26:18;;;;;;;11.38;7.65;;;;;;;12.06;71.46;102205.59;5032370;28;20021;-77
2023/06/01 02:28:44;;;;;;;12.02;7.05;;;;;;;12.06;71.58;102208.19;5029237;28;20044;-77
2023/06/01 02:31:09;;;;;;;11.85;8.07;;;;;;;12.08;71.76;102211.66;5031515;28;20049;-77
2023/06/01 02:33:35;;;;;;;13.57;8.13;;;;;;;12.06;71.80;102209.03;5031577;28;20025;-77
2023/06/01 02:36:00;;;;;;;11.85;7.63;;;;;;;12.05;71.87;102203.84;5031791;28;20030;-77
2023/06/01 02:38:26;;;;;;;13.70;7.95;;;;;;;12.06;72.23;102208.19;5032156;28;20017;-77
2023/06/01 02:40:51;;;;;;;11.55;7.15;;;;;;;12.05;71.82;102201.25;5030123;28;20028;-77
2023/06/01 02:43:17;;;;;;;11.65;7.35;;;;;;;12.05;71.25;102206.47;5029687;28;20025;-77
2023/06/01 02:45:42;;;;;;;12.27;7.60;;;;;;;12.04;71.62;102199.50;5032329;28;20036;-77
2023/06/01 02:48:07;;;;;;;10.98;7.22;;;;;;;12.03;72.06;102197.78;5029715;28;20112;-77
2023/06/01 02:50:32;;;;;;;13.25;7.65;;;;;;;12.01;72.11;102208.25;5031710;28;20033;-77
2023/06/01 02:52:58;;;;;;;11.55;7.32;;;;;;;12.02;71.36;102204.75;5030937;28;20041;-77
2023/06/01 02:55:23;;;;;;;10.80;7.32;;;;;;;11.96;71.39;102200.41;5029094;28;20040;-77
2023/06/01 02:57:48;;;;;;;13.07;7.25;;;;;;;11.92;71.40;102203.94;5028703;28;20100;-77
2023/06/01 03:00:17;;;;;;;10.07;6.97;;;;;;;11.89;71.31;102209.19;5031166;28;20057;-77
2023/06/01 03:02:43;;;;;;;13.02;6.45;;;;;;;11.88;71.23;102202.25;5032214;28;20022;-77
2023/06/01 03:05:09;;;;;;;11.85;6.57;;;;;;;11.84;71.19;102211.84;5029985;28;20028;-77
2023/06/01 03:07:34;;;;;;;11.13;6.75;;;;;;;11.79;71.39;102210.13;5030768;28;20029;-77
2023/06/01 03:09:59;;;;;;;9.82;6.22;;;;;;;11.76;71.36;102212.78;5027319;28;20036;-77
2023/06/01 03:12:25;;;;;;;10.80;6.35;;;;;;;11.72;71.30;102217.16;5028271;28;20152;-77
2023/06/01 03:14:51;;;;;;;10.00;5.93;;;;;;;11.71;71.71;102210.19;5027563;28;20460;-77
2023/06/01 03:17:17;;;;;;;8.02;5.65;;;;;;;11.66;71.68;102214.59;5031753;28;20686;-77
2023/06/01 03:19:42;;;;;;;9.55;6.20;;;;;;;11.60;71.93;102207.72;5031337;28;20537;-77
2023/06/01 03:22:07;;;;;;;9.98;6.60;;;;;;;11.57;71.94;102209.44;5033044;28;20033;-77
2023/06/01 03:24:34;;;;;;;9.80;6.20;;;;;;;11.57;72.19;102212.06;5031670;28;20032;-77
2023/06/01 03:27:00;;;;;;;10.10;6.35;;;;;;;11.55;72.30;102206.88;5031889;28;20025;-77
2023/06/01 03:29:26;;;;;;;9.23;5.90;;;;;;;11.54;72.81;102205.13;5031626;28;20076;-77
2023/06/01 03:31:51;;;;;;;8.82;5.95;;;;;;;11.56;72.39;102206.00;5030973;28;20465;-77
2023/06/01 03:34:17;;;;;;;11.43;6.60;;;;;;;11.57;72.41;102201.63;5028769;28;20036;-77
2023/06/01 03:36:47;;;;;;;8.30;5.63;;;;;;;11.58;72.39;102212.06;5032954;28;20029;-77
2023/06/01 03:39:13;;;;;;;10.63;6.40;;;;;;;11.61;72.43;102204.22;5031543;28;20025;-77
2023/06/01 03:41:39;;;;;;;9.35;5.60;;;;;;;11.64;72.48;102209.38;5030513;28;20542;-77
2023/06/01 03:44:04;;;;;;;9.15;5.45;;;;;;;11.64;72.64;102212.00;5033120;28;20028;-77
2023/06/01 03:46:29;;;;;;;7.85;5.13;;;;;;;11.65;72.57;102208.50;5030127;28;20049;-77
2023/06/01 03:48:55;;;;;;;7.78;5.15;;;;;;;11.67;72.27;102211.13;5027599;28;20029;-77
2023/06/01 03:51:20;;;;;;;8.82;5.47;;;;;;;11.68;72.45;102205.88;5029495;28;20075;-77
2023/06/01 03:53:45;;;;;;;9.60;5.63;;;;;;;11.71;71.70;102212.81;5030455;28;20549;-77
2023/06/01 03:56:11;;;;;;;8.70;5.35;;;;;;;11.71;71.78;102214.56;5028107;28;20021;-76
2023/06/01 03:58:36;;;;;;;9.18;5.80;;;;;;;11.68;71.56;102215.47;5030921;28;20429;-76
2023/06/01 04:01:03;;;;;;;11.07;6.28;;;;;;;11.64;71.63;102212.00;5030350;28;20025;-77
2023/06/01 04:03:29;;;;;;;10.88;6.32;;;;;;;11.60;71.70;102217.25;5029633;28;20099;-77
2023/06/01 04:05:59;;;;;;;7.60;5.50;;;;;;;11.57;72.00;102214.66;5029279;28;20481;-76
2023/06/01 04:08:25;;;;;;;9.07;5.47;;;;;;;11.55;71.55;102219.91;5025933;28;20061;-77
2023/06/01 04:10:51;;;;;;;9.05;6.05;;;;;;;11.52;71.50;102215.59;5025672;28;20026;-77
2023/06/01 04:13:16;;;;;;;10.43;6.15;;;;;;;11.53;72.00;102216.44;5028924;28;20021;-77
2023/06/01 04:15:41;;;;;;;9.02;6.22;;;;;;;11.54;72.09;102218.16;5028879;28;20013;-77
2023/06/01 04:18:07;;;;;;;8.57;5.97;;;;;;;11.57;71.96;102212.06;5027287;28;20030;-77
2023/06/01 04:20:32;;;;;;;7.68;5.65;;;;;;;11.57;71.94;102212.94;5026588;28;20373;-77
2023/06/01 04:22:57;;;;;;;9.85;5.60;;;;;;;11.58;71.66;102219.88;5030385;28;20189;-77
2023/06/01 04:25:23;;;;;;;12.00;6.40;;;;;;;11.61;71.50;102213.78;5030637;28;20059;-77
2023/06/01 04:27:51;;;;;;;8.80;5.57;;;;;;;11.64;71.33;102206.78;5027532;28;20040;-77
2023/06/01 04:30:17;;;;;;;9.80;5.75;;;;;;;11.68;71.03;102216.31;5030200;28;20378;-77
2023/06/01 04:32:44;;;;;;;9.93;6.28;;;;;;;11.69;71.26;102217.19;5030840;28;20100;-77
2023/06/01 04:35:10;;;;;;;10.85;5.78;;;;;;;11.72;71.21;102222.34;5031055;28;20021;-77
2023/06/01 04:37:40;;;;;;;8.45;5.80;;;;;;;11.75;70.77;102227.56;5029023;28;20029;-77
2023/06/01 04:40:08;;;;;;;8.38;6.07;;;;;;;11.75;70.54;102230.16;5028279;28;20362;-77
2023/06/01 04:42:55;;;;;;;10.95;6.25;;;;;;;11.75;69.95;102229.31;5028710;28;20745;-77
2023/06/01 04:45:20;;;;;;;8.63;5.38;;;;;;;11.74;70.01;102228.44;5026262;28;20032;-77
2023/06/01 04:47:46;;;;;;;9.73;6.53;;;;;;;11.74;70.59;102228.44;5025846;28;20478;-77
2023/06/01 04:50:12;;;;;;;9.88;6.47;;;;;;;11.74;70.84;102228.44;5029199;28;20548;-77
2023/06/01 04:52:39;;;;;;;10.38;5.60;;;;;;;11.75;70.90;102242.34;5027805;28;20493;-76
2023/06/01 04:55:06;;;;;;;9.48;5.80;;;;;;;11.74;70.79;102231.03;5022750;28;20065;-77
2023/06/01 04:57:35;;;;;;;10.55;6.78;;;;;;;11.72;71.20;102226.72;5027083;28;20087;-76
2023/06/01 05:00:11;;;;;;;11.88;7.15;;;;;;;11.72;71.11;102237.16;5029044;28;20056;-77
2023/06/01 05:02:37;;;;;;;9.55;6.22;;;;;;;11.73;70.96;102228.44;5026211;28;20079;-77
2023/06/01 05:05:04;;;;;;;10.45;6.60;;;;;;;11.73;71.03;102238.88;5028117;28;20420;-76
2023/06/01 05:07:29;;;;;;;9.90;6.13;;;;;;;11.72;70.83;102222.34;5028580;28;20029;-77
2023/06/01 05:09:54;;;;;;;10.55;6.28;;;;;;;11.74;70.75;102225.81;5026329;28;20030;-77
2023/06/01 05:12:20;;;;;;;9.55;6.40;;;;;;;11.78;70.92;102227.53;5026804;28;20030;-76
2023/06/01 05:14:45;;;;;;;9.50;5.95;;;;;;;11.82;70.69;102223.16;5026760;28;20025;-77
2023/06/01 05:17:10;;;;;;;10.48;6.07;;;;;;;11.84;71.29;102221.41;5027118;28;20410;-76
2023/06/01 05:19:35;;;;;;;12.32;6.43;;;;;;;11.88;71.11;102223.09;5029145;28;20029;-76
2023/06/01 05:22:01;;;;;;;11.57;6.28;;;;;;;11.93;71.15;102225.66;5031230;28;20361;-77
2023/06/01 05:24:26;;;;;;;10.18;6.45;;;;;;;11.95;70.72;102222.19;5031053;28;20021;-77
2023/06/01 05:26:52;;;;;;;9.20;5.80;;;;;;;11.98;70.49;102221.28;5030229;28;20326;-77
2023/06/01 05:29:17;;;;;;;9.40;5.90;;;;;;;11.99;70.64;102216.06;5031179;28;20055;-76
2023/06/01 05:31:42;;;;;;;10.20;6.10;;;;;;;12.01;70.68;102215.19;5031937;28;20056;-77
2023/06/01 05:34:07;;;;;;;11.15;6.15;;;;;;;12.03;70.47;102221.25;5034396;28;20381;-78
2023/06/01 05:36:33;;;;;;;9.82;6.00;;;;;;;12.02;70.48;102224.75;5033603;28;20032;-78
2023/06/01 05:38:58;;;;;;;9.25;6.20;;;;;;;12.01;70.16;102223.00;5033590;28;20033;-77
2023/06/01 05:41:25;;;;;;;10.13;6.25;;;;;;;11.98;70.39;102224.78;5030805;28;20113;-77
2023/06/01 05:43:51;;;;;;;9.02;5.80;;;;;;;11.98;70.22;102224.78;5034931;28;20021;-77
2023/06/01 05:46:17;;;;;;;10.13;6.57;;;;;;;12.02;70.70;102229.97;5034757;28;20465;-77
2023/06/01 05:48:42;;;;;;;10.32;6.55;;;;;;;12.04;70.13;102226.44;5032267;28;20029;-77
2023/06/01 05:51:07;;;;;;;8.27;5.60;;;;;;;12.13;69.99;102228.09;5031266;28;20029;-77
2023/06/01 05:53:33;;;;;;;11.75;5.82;;;;;;;12.20;69.81;102229.78;5033405;28;20501;-77
2023/06/01 05:55:58;;;;;;;11.25;6.40;;;;;;;12.29;70.85;102228.81;5033765;28;20025;-77
2023/06/01 05:58:23;;;;;;;11.77;6.43;;;;;;;12.42;70.51;102226.94;5034265;28;20021;-77
2023/06/01 06:00:48;;;;;;;8.85;5.97;;;;;;;12.57;70.62;102226.78;5030418;28;20513;-77
2023/06/01 06:03:14;;;;;;;10.73;5.90;;;;;;;12.64;68.77;102229.31;5032158;28;20021;-77
2023/06/01 06:05:39;;;;;;;9.80;5.93;;;;;;;12.67;69.93;102230.13;5032602;28;20024;-77
2023/06/01 06:08:04;;;;;;;9.52;5.68;;;;;;;12.66;68.12;102232.75;5031281;28;20118;-77
2023/06/01 06:10:29;;;;;;;9.18;5.75;;;;;;;12.59;68.11;102232.84;5033725;28;20439;-77
2023/06/01 06:12:55;;;;;;;10.43;5.70;;;;;;;12.49;69.24;102231.22;5032625;28;20388;-77
2023/06/01 06:15:20;;;;;;;13.75;5.88;;;;;;;12.43;68.26;102231.28;5029052;28;20030;-77
2023/06/01 06:17:46;;;;;;;9.50;5.57;;;;;;;12.36;69.45;102229.63;5032049;28;20056;-77
2023/06/01 06:20:11;;;;;;;11.45;5.65;;;;;;;12.34;68.99;102239.22;5032853;28;20028;-77
2023/06/01 06:22:37;;;;;;;10.38;5.60;;;;;;;12.32;69.09;102235.75;5034566;28;20049;-77
2023/06/01 06:25:02;;;;;;;9.15;5.38;;;;;;;12.33;69.27;102232.25;5031770;28;20384;-77
2023/06/01 06:27:28;;;;;;;7.25;5.15;;;;;;;12.34;68.57;102239.22;5032094;28;20190;-77
2023/06/01 06:29:54;;;;;;;10.52;5.80;;;;;;;12.34;68.82;102234.00;5030073;28;20025;-78
2023/06/01 06:32:21;;;;;;;11.32;5.70;;;;;;;12.34;68.82;102237.47;5032201;28;20021;-77
2023/06/01 06:34:47;;;;;;;10.80;5.82;;;;;;;12.35;69.06;102227.88;5031388;28;20412;-77
2023/06/01 06:37:12;;;;;;;10.05;5.78;;;;;;;12.36;68.89;102230.50;5031510;28;20022;-78
2023/06/01 06:39:37;;;;;;;10.48;5.85;;;;;;;12.36;68.99;102230.50;5033564;28;20029;-77
2023/06/01 06:42:04;;;;;;;10.35;5.80;;;;;;;12.38;69.11;102233.09;5030271;28;20029;-77
2023/06/01 06:44:29;;;;;;;8.95;5.75;;;;;;;12.37;68.54;102236.56;5032752;28;20486;-77
2023/06/01 06:46:55;;;;;;;8.60;5.45;;;;;;;12.34;68.28;102236.59;5030496;28;20025;-77
2023/06/01 06:49:20;;;;;;;9.55;5.65;;;;;;;12.30;68.79;102236.63;5028763;28;20053;-78
2023/06/01 06:51:46;;;;;;;9.63;5.80;;;;;;;12.29;68.98;102245.38;5027593;28;20131;-77
2023/06/01 06:54:11;;;;;;;11.13;5.57;;;;;;;12.32;69.27;102243.56;5032106;28;20069;-77
2023/06/01 06:56:37;;;;;;;10.50;5.90;;;;;;;12.39;69.93;102237.41;5032462;28;20491;-77
2023/06/01 06:59:02;;;;;;;9.10;5.35;;;;;;;12.51;70.92;102237.28;5031137;28;20436;-77
2023/06/01 07:01:27;;;;;;;11.07;5.15;;;;;;;12.70;70.16;102239.66;5030332;28;20033;-78
2023/06/01 07:03:53;;;;;;;10.93;5.78;;;;;;;12.85;68.64;102236.88;5029645;28;20029;-77
2023/06/01 07:06:18;;;;;;;10.13;5.60;;;;;;;13.00;69.72;102237.53;5030818;28;20040;-77
2023/06/01 07:08:43;;;;;;;9.70;5.20;;;;;;;13.12;68.25;102245.25;5028085;28;20052;-77
2023/06/01 07:11:09;;;;;;;7.65;4.50;;;;;;;13.13;71.07;102239.13;5028294;28;20053;-77
2023/06/01 07:13:35;;;;;;;10.02;5.07;;;;;;;13.14;67.43;102229.53;5029815;28;20025;-77
2023/06/01 07:16:01;;;;;;;7.68;4.50;;;;;;;13.13;69.23;102236.50;5029402;28;20037;-77
2023/06/01 07:18:26;;;;;;;10.52;5.15;;;;;;;13.13;68.20;102236.50;5031413;28;20392;-77
2023/06/01 07:20:51;;;;;;;6.72;4.50;;;;;;;13.20;70.37;102232.91;5030114;28;20468;-77
2023/06/01 07:23:17;;;;;;;6.78;4.20;;;;;;;13.30;70.62;102235.41;5033393;28;20441;-77
2023/06/01 07:25:42;;;;;;;8.23;5.03;;;;;;;13.36;67.48;102233.56;5032773;28;20034;-77
2023/06/01 07:28:08;;;;;;;12.32;5.47;;;;;;;13.44;68.16;102237.81;5032720;28;20075;-77
2023/06/01 07:30:34;;;;;;;8.32;4.90;;;;;;;13.48;70.10;102232.56;5029496;28;20531;-77
2023/06/01 07:32:59;;;;;;;7.35;4.50;;;;;;;13.53;70.73;102242.06;5032200;28;20032;-77
2023/06/01 07:35:25;;;;;;;10.43;5.75;;;;;;;13.53;67.28;102234.22;5030892;28;20124;-77
2023/06/01 07:37:50;;;;;;;10.82;5.90;;;;;;;13.54;66.74;102238.56;5030301;28;20064;-77
2023/06/01 07:40:16;;;;;;;11.95;5.45;;;;;;;13.55;65.93;102235.94;5030606;28;20021;-77
2023/06/01 07:42:41;;;;;;;9.25;4.95;;;;;;;13.58;69.88;102232.38;5027001;28;20036;-77
2023/06/01 07:45:08;;;;;;;8.00;4.50;;;;;;;13.61;68.36;102234.97;5027324;28;20030;-77
2023/06/01 07:47:34;;;;;;;10.02;5.20;;;;;;;13.62;67.05;102228.84;5027784;28;20029;-77
2023/06/01 07:49:59;;;;;;;10.07;5.63;;;;;;;13.61;66.51;102225.34;5026061;28;20036;-77
2023/06/01 07:52:24;;;;;;;10.13;5.55;;;;;;;13.62;66.76;102232.31;5029211;28;20041;-77
2023/06/01 07:54:51;;;;;;;7.72;4.93;;;;;;;13.65;68.47;102232.25;5030518;28;20116;-77
2023/06/01 07:57:16;;;;;;;7.97;4.88;;;;;;;13.69;66.44;102233.06;5027053;28;20025;-77
2023/06/01 07:59:42;;;;;;;9.18;4.97;;;;;;;13.72;65.61;102222.56;5030755;28;20037;-77
2023/06/01 08:02:07;;;;;;;12.43;5.78;;;;;;;13.73;65.11;102224.28;5026821;28;20025;-77
2023/06/01 08:04:33;;;;;;;11.10;5.85;;;;;;;13.77;66.79;102225.97;5024720;28;20540;-77
2023/06/01 08:06:58;;;;;;;9.20;5.38;;;;;;;13.83;66.12;102227.63;5023037;28;20548;-77
2023/06/01 08:09:24;;;;;;;10.05;5.70;;;;;;;13.87;65.13;102234.53;5025121;28;20037;-77
2023/06/01 08:11:50;;;;;;;11.68;5.25;;;;;;;13.94;66.08;102230.06;5028139;28;20125;-77
2023/06/01 08:14:16;;;;;;;10.82;5.55;;;;;;;13.97;65.83;102230.00;5027751;28;20496;-77
2023/06/01 08:16:42;;;;;;;8.48;5.30;;;;;;;13.97;65.16;102222.16;5029247;28;21569;-77
2023/06/01 08:19:07;;;;;;;10.63;5.68;;;;;;;13.99;65.22;102228.22;5026978;28;20021;-77
2023/06/01 08:21:34;;;;;;;10.35;6.05;;;;;;;14.00;64.96;102221.22;5029235;28;20037;-77
2023/06/01 08:24:01;;;;;;;11.40;5.93;;;;;;;13.98;64.34;102221.25;5027135;28;20083;-77
2023/06/01 08:26:27;;;;;;;10.65;5.75;;;;;;;13.96;63.74;102223.88;5029033;28;20021;-78
2023/06/01 08:28:52;;;;;;;10.25;5.80;;;;;;;13.93;64.55;102225.72;5028849;28;20036;-77
2023/06/01 08:31:22;;;;;;;10.93;6.15;;;;;;;13.92;64.66;102213.50;5028468;28;20026;-77
2023/06/01 08:33:48;;;;;;;8.45;5.47;;;;;;;13.97;65.13;102216.91;5030414;28;20039;-77
2023/06/01 08:36:13;;;;;;;10.27;5.85;;;;;;;14.05;64.24;102219.41;5028770;28;20024;-77
2023/06/01 08:38:39;;;;;;;10.68;5.75;;;;;;;14.13;64.68;102216.63;5030539;28;20029;-77
2023/06/01 08:41:20;;;;;;;10.05;5.35;;;;;;;14.19;65.11;102219.13;5025628;28;20064;-77
2023/06/01 08:43:54;;;;;;;9.20;5.72;;;;;;;14.20;63.17;102207.75;5026247;28;20025;-77
2023/06/01 08:46:21;;;;;;;10.35;5.25;;;;;;;14.24;63.80;102210.31;5024367;28;20372;-77
2023/06/01 08:48:48;;;;;;;10.18;5.63;;;;;;;14.31;62.61;102211.06;5026340;28;20025;-77
2023/06/01 08:51:14;;;;;;;9.02;6.05;;;;;;;14.35;63.82;102204.84;5027945;28;20026;-77
2023/06/01 08:53:42;;;;;;;9.15;6.22;;;;;;;14.41;63.71;102206.50;5029501;28;20680;-77
2023/06/01 08:56:07;;;;;;;11.80;5.82;;;;;;;14.46;61.98;102203.78;5028563;28;20032;-77
2023/06/01 08:58:33;;;;;;;8.70;5.90;;;;;;;14.53;62.92;102208.88;5026324;28;20033;-77
2023/06/01 09:00:59;;;;;;;11.15;6.13;;;;;;;14.54;61.89;102201.84;5025787;28;20025;-77
2023/06/01 09:03:25;;;;;;;11.52;5.55;;;;;;;14.56;63.52;102193.09;5026303;28;20063;-77
2023/06/01 09:05:50;;;;;;;10.98;5.78;;;;;;;14.62;63.73;102199.97;5023546;28;20021;-77
2023/06/01 09:08:15;;;;;;;9.48;5.38;;;;;;;14.68;63.46;102189.41;5025365;28;20447;-77
2023/06/01 09:10:41;;;;;;;8.90;5.50;;;;;;;14.75;62.74;102195.38;5024933;28;20033;-77
2023/06/01 09:13:06;;;;;;;8.95;5.30;;;;;;;14.79;61.89;102199.63;5024683;28;20725;-77
2023/06/01 09:15:31;;;;;;;9.10;5.43;;;;;;;14.84;62.52;102189.91;5024414;28;20026;-77
2023/06/01 09:18:10;;;;;;;10.43;5.45;;;;;;;14.89;61.86;102186.31;5026758;28;20368;-77
2023/06/01 09:20:37;;;;;;;9.27;5.65;;;;;;;14.92;61.01;102192.34;5024592;28;20111;-77
2023/06/01 09:23:02;;;;;;;9.98;5.47;;;;;;;14.94;59.54;102189.72;5057670;28;20111;-77
2023/06/01 09:25:29;;;;;;;9.98;5.30;;;;;;;14.94;61.69;102180.09;5026023;28;20037;-77
2023/06/01 09:27:56;;;;;;;10.73;5.57;;;;;;;14.98;61.36;102176.50;5025872;28;20029;-77
2023/06/01 09:30:24;;;;;;;9.25;5.60;;;;;;;15.03;60.73;102179.00;5024082;28;20038;-77
2023/06/01 09:32:53;;;;;;;12.52;5.72;;;;;;;15.06;60.23;102171.09;5025251;28;20362;-77
2023/06/01 09:35:40;;;;;;;10.35;6.10;;;;;;;15.11;60.97;102177.09;5023389;28;20025;-77
2023/06/01 09:38:06;;;;;;;10.95;5.57;;;;;;;15.16;60.56;102169.09;5024833;28;20033;-77
2023/06/01 09:40:33;;;;;;;10.50;6.22;;;;;;;15.23;60.36;102161.97;5023962;28;20021;-77
2023/06/01 09:42:59;;;;;;;11.05;5.40;;;;;;;15.29;61.39;102165.28;5026182;28;20132;-77
2023/06/01 09:45:24;;;;;;;9.65;5.40;;;;;;;15.35;61.72;102164.28;5026088;28;20075;-77
2023/06/01 09:47:51;;;;;;;9.93;5.57;;;;;;;15.40;61.31;102157.16;5025839;28;20060;-77
2023/06/01 09:50:33;;;;;;;9.73;5.65;;;;;;;15.49;61.44;102153.44;5026963;28;20485;-77
2023/06/01 09:52:59;;;;;;;9.10;5.30;;;;;;;15.55;61.25;102150.66;5023072;28;20073;-77
2023/06/01 09:55:24;;;;;;;10.52;5.30;;;;;;;15.63;61.63;102153.06;5024054;28;20061;-77
2023/06/01 09:57:49;;;;;;;10.10;5.70;;;;;;;15.67;60.17;102153.88;5024334;28;20485;-77
2023/06/01 10:00:26;;;;;;;11.20;5.65;;;;;;;15.72;60.97;102157.22;5025173;28;20057;-78
2023/06/01 10:02:53;;;;;;;8.85;5.55;;;;;;;15.78;61.34;102151.81;5025345;28;20064;-78
2023/06/01 10:05:20;;;;;;;8.30;5.25;;;;;;;15.77;58.17;102165.84;5029510;28;20013;-77
2023/06/01 10:07:47;;;;;;;8.05;5.32;;;;;;;15.72;58.69;102151.97;5030456;28;20029;-79
2023/06/01 10:10:14;;;;;;;9.45;6.03;;;;;;;15.72;60.45;102155.47;5026957;28;20038;-78
2023/06/01 10:12:39;;;;;;;9.73;5.70;;;;;;;15.77;59.06;102150.09;5027723;28;20033;-78
2023/06/01 10:15:06;;;;;;;9.95;5.30;;;;;;;15.82;60.35;102148.22;5025538;28;21228;-78
2023/06/01 10:17:32;;;;;;;10.15;5.10;;;;;;;15.85;61.58;102148.19;5028453;28;20198;-79
2023/06/01 10:19:58;;;;;;;8.85;4.32;;;;;;;15.91;61.31;102148.00;5025676;28;20040;-77
2023/06/01 10:22:24;;;;;;;7.90;5.03;;;;;;;15.93;58.56;102146.19;5028932;28;20021;-77
2023/06/01 10:24:54;;;;;;;11.07;5.90;;;;;;;15.91;58.33;102137.50;5028432;28;20465;-78
2023/06/01 10:27:26;;;;;;;11.00;5.90;;;;;;;15.91;58.01;102137.50;5028233;28;20048;-77
2023/06/01 10:29:55;;;;;;;10.70;5.57;;;;;;;15.93;60.07;102140.09;5027388;28;20100;-78
2023/06/01 10:32:47;;;;;;;9.88;5.68;;;;;;;16.01;60.25;102134.63;5026257;28;20029;-77
2023/06/01 10:35:41;;;;;;;8.13;5.45;;;;;;;16.09;59.23;102137.88;5028925;28;20445;-78
2023/06/01 10:38:06;;;;;;;9.48;5.30;;;;;;;16.13;59.66;102136.91;5024117;28;20052;-77
2023/06/01 10:40:39;;;;;;;10.77;5.82;;;;;;;16.19;59.16;102139.34;5028233;28;20038;-77
2023/06/01 10:43:05;;;;;;;8.45;5.38;;;;;;;16.25;59.05;102140.94;5027558;28;20037;-78
2023/06/01 10:45:33;;;;;;;8.35;5.20;;;;;;;16.29;60.56;102131.19;5028280;28;20037;-78
2023/06/01 10:47:59;;;;;;;10.85;5.97;;;;;;;16.28;57.96;102124.22;5029042;28;20119;-77
2023/06/01 10:50:25;;;;;;;9.27;5.28;;;;;;;16.31;57.78;102130.25;5027883;28;20079;-78
2023/06/01 10:52:51;;;;;;;9.50;5.82;;;;;;;16.34;56.91;102127.53;5026377;28;20447;-79
2023/06/01 10:55:17;;;;;;;11.10;6.05;;;;;;;16.33;56.67;102130.22;5029056;28;20032;-79
2023/06/01 10:57:46;;;;;;;11.88;5.47;;;;;;;16.36;59.71;102133.59;5028499;28;20030;-78
2023/06/01 11:00:19;;;;;;;8.88;5.30;;;;;;;16.42;57.93;102121.19;5028813;28;20039;-78
2023/06/01 11:02:55;;;;;;;8.95;5.00;;;;;;;16.47;58.40;102125.41;5028502;28;20040;-79
2023/06/01 11:05:46;;;;;;;8.70;5.65;;;;;;;16.55;57.92;102122.53;5025967;28;20025;-78
2023/06/01 11:08:32;;;;;;;9.40;5.57;;;;;;;16.59;57.69;102128.56;5028266;28;20064;-78
2023/06/01 11:11:05;;;;;;;11.60;6.28;;;;;;;16.57;55.87;102114.63;5020248;28;20538;-79
2023/06/01 11:13:35;;;;;;;10.60;6.13;;;;;;;16.56;57.40;102112.91;5024484;28;20080;-79
2023/06/01 11:16:09;;;;;;;11.82;6.30;;;;;;;16.62;59.25;102112.72;5028590;28;20071;-78
2023/06/01 11:18:42;;;;;;;12.65;6.30;;;;;;;16.65;57.48;102115.25;5028549;28;20029;-79
2023/06/01 11:21:16;;;;;;;21.70;6.85;;;;;;;16.65;57.22;102110.00;5026173;28;20065;-78
2023/06/01 11:23:42;;;;;;;10.88;6.18;;;;;;;16.65;54.89;102107.38;5030429;28;20021;-78